createdAt,value
2018-10-11T00:02:03.892Z,87.30
2018-10-11T00:04:32.196Z,87.20
2018-10-11T00:07:00.497Z,87.30
2018-10-11T00:12:13.590Z,88.00
2018-10-11T00:14:41.917Z,88.80
2018-10-11T00:17:10.351Z,88.50
2018-10-11T00:19:38.800Z,88.70
2018-10-11T00:22:07.184Z,88.70
2018-10-11T00:24:35.559Z,88.50
2018-10-11T00:27:04.070Z,88.10
2018-10-11T00:29:32.428Z,87.90
2018-10-11T00:32:00.907Z,87.70
2018-10-11T00:34:29.208Z,87.70
2018-10-11T00:37:04.116Z,87.60
2018-10-11T00:39:32.493Z,87.70
2018-10-11T00:42:01.280Z,87.40
2018-10-11T00:44:29.698Z,87.30
2018-10-11T00:46:57.990Z,87.20
2018-10-11T00:49:26.386Z,87.30
2018-10-11T00:51:54.706Z,87.10
2018-10-11T00:54:23.458Z,87.00
2018-10-11T00:56:51.796Z,87.00
2018-10-11T00:59:20.155Z,86.90
2018-10-11T01:01:48.504Z,86.80
2018-10-11T01:04:17.011Z,87.10
2018-10-11T01:06:45.477Z,87.00
2018-10-11T01:09:14.572Z,87.00
2018-10-11T01:11:43.020Z,86.80
2018-10-11T01:14:11.361Z,87.50
2018-10-11T01:16:40.036Z,88.10
2018-10-11T01:19:08.911Z,88.70
2018-10-11T01:21:37.481Z,88.10
2018-10-11T01:24:06.020Z,88.50
2018-10-11T01:26:34.456Z,88.50
2018-10-11T01:29:03.151Z,88.80
2018-10-11T01:31:31.522Z,88.80
2018-10-11T01:33:59.771Z,88.90
2018-10-11T01:36:28.032Z,89.00
2018-10-11T01:38:56.382Z,88.80
2018-10-11T01:41:24.740Z,88.60
2018-10-11T01:43:53.180Z,88.50
2018-10-11T01:46:21.618Z,88.50
2018-10-11T01:48:49.863Z,88.10
2018-10-11T01:51:18.317Z,88.00
2018-10-11T01:53:46.717Z,88.50
2018-10-11T01:56:15.725Z,88.80
2018-10-11T01:58:44.102Z,89.00
2018-10-11T02:01:12.407Z,88.90
2018-10-11T02:03:40.768Z,88.90
2018-10-11T02:06:09.092Z,88.90
2018-10-11T02:08:37.350Z,89.40
2018-10-11T02:11:05.791Z,89.70
2018-10-11T02:13:34.205Z,89.90
2018-10-11T02:16:03.043Z,89.90
2018-10-11T02:18:31.412Z,90.00
2018-10-11T02:20:59.753Z,90.10
2018-10-11T02:23:28.067Z,90.10
2018-10-11T02:25:56.401Z,90.10
2018-10-11T02:28:24.807Z,90.10
2018-10-11T02:30:53.081Z,90.10
2018-10-11T02:33:21.390Z,89.50
2018-10-11T02:35:49.641Z,89.70
2018-10-11T02:38:17.983Z,88.90
2018-10-11T02:40:46.416Z,89.10
2018-10-11T02:43:14.705Z,89.60
2018-10-11T02:45:43.036Z,89.60
2018-10-11T02:48:11.299Z,89.30
2018-10-11T02:50:39.638Z,89.10
2018-10-11T02:53:08.195Z,89.00
2018-10-11T02:55:36.510Z,89.10
2018-10-11T02:58:21.775Z,89.80
2018-10-11T03:00:50.225Z,90.10
2018-10-11T03:03:26.179Z,90.10
2018-10-11T03:05:54.715Z,90.10
2018-10-11T03:08:25.170Z,90.10
2018-10-11T03:10:53.562Z,90.10
2018-10-11T03:13:21.986Z,90.10
2018-10-11T03:15:50.369Z,90.10
2018-10-11T03:18:18.701Z,90.20
2018-10-11T03:20:47.271Z,90.30
2018-10-11T03:23:15.709Z,90.20
2018-10-11T03:25:48.627Z,90.20
2018-10-11T03:28:17.441Z,90.00
2018-10-11T03:30:46.005Z,90.00
2018-10-11T03:33:14.806Z,90.00
2018-10-11T03:35:44.012Z,90.10
2018-10-11T03:38:12.945Z,90.30
2018-10-11T03:40:41.400Z,90.20
2018-10-11T03:43:10.107Z,90.30
2018-10-11T03:45:38.439Z,90.10
2018-10-11T03:48:06.801Z,90.20
2018-10-11T03:50:35.096Z,90.30
2018-10-11T03:53:03.364Z,90.40
2018-10-11T03:55:31.684Z,90.50
2018-10-11T03:58:00.082Z,90.60
2018-10-11T04:00:28.835Z,90.60
2018-10-11T04:02:57.239Z,90.60
2018-10-11T04:05:25.588Z,90.50
2018-10-11T04:07:53.901Z,90.30
2018-10-11T04:10:22.179Z,90.20
2018-10-11T04:12:50.594Z,90.50
2018-10-11T04:15:18.929Z,90.20
2018-10-11T04:17:47.432Z,90.20
2018-10-11T04:20:15.808Z,90.20
2018-10-11T04:22:44.187Z,90.10
2018-10-11T04:25:13.028Z,90.20
2018-10-11T04:27:41.493Z,90.30
2018-10-11T04:30:10.539Z,90.30
2018-10-11T04:32:39.016Z,90.60
2018-10-11T04:35:07.527Z,90.20
2018-10-11T04:37:35.989Z,90.10
2018-10-11T04:40:04.463Z,90.10
2018-10-11T04:42:33.605Z,90.10
2018-10-11T04:45:01.907Z,90.10
2018-10-11T04:47:30.360Z,89.70
2018-10-11T04:49:58.823Z,89.70
2018-10-11T04:52:27.558Z,89.50
2018-10-11T04:54:56.100Z,89.40
2018-10-11T04:57:24.522Z,89.60
2018-10-11T04:59:53.238Z,89.40
2018-10-11T05:02:22.119Z,89.20
2018-10-11T05:04:50.499Z,89.20
2018-10-11T05:07:18.886Z,89.20
2018-10-11T05:09:47.498Z,89.20
2018-10-11T05:12:16.336Z,89.30
2018-10-11T05:14:44.756Z,89.40
2018-10-11T05:17:14.345Z,89.00
2018-10-11T05:19:43.727Z,89.00
2018-10-11T05:22:14.538Z,88.70
2018-10-11T05:24:45.587Z,88.90
2018-10-11T05:27:15.858Z,89.00
2018-10-11T05:29:47.403Z,88.90
2018-10-11T05:32:16.687Z,89.10
2018-10-11T05:34:45.369Z,89.00
2018-10-11T05:37:20.758Z,89.10
2018-10-11T05:39:50.475Z,89.30
2018-10-11T05:42:21.608Z,89.50
2018-10-11T05:44:50.513Z,90.00
2018-10-11T05:47:19.504Z,90.50
2018-10-11T05:49:48.200Z,90.20
2018-10-11T05:52:16.898Z,90.00
2018-10-11T05:54:45.512Z,89.80
2018-10-11T05:57:14.167Z,89.30
2018-10-11T05:59:42.776Z,89.00
2018-10-11T06:02:11.466Z,89.10
2018-10-11T06:04:40.009Z,89.20
2018-10-11T06:07:08.584Z,88.90
2018-10-11T06:09:39.739Z,88.30
2018-10-11T06:12:08.753Z,88.10
2018-10-11T06:14:37.341Z,88.10
2018-10-11T06:17:06.629Z,88.10
2018-10-11T06:19:35.785Z,88.00
2018-10-11T06:22:04.268Z,88.00
2018-10-11T06:24:33.598Z,87.80
2018-10-11T06:27:03.338Z,87.60
2018-10-11T06:29:32.281Z,87.60
2018-10-11T06:32:00.884Z,87.70
2018-10-11T06:34:29.266Z,88.10
2018-10-11T06:36:58.819Z,88.20
2018-10-11T06:39:27.281Z,88.70
2018-10-11T06:41:55.669Z,88.50
2018-10-11T06:44:23.987Z,88.20
2018-10-11T06:46:52.616Z,88.10
2018-10-11T06:49:21.333Z,88.10
2018-10-11T06:51:49.960Z,88.20
2018-10-11T06:54:18.670Z,88.20
2018-10-11T06:56:47.561Z,88.30
2018-10-11T06:59:15.968Z,88.40
2018-10-11T07:01:44.438Z,88.30
2018-10-11T07:04:12.726Z,88.40
2018-10-11T07:06:41.000Z,88.40
2018-10-11T07:09:09.328Z,88.50
2018-10-11T07:11:37.885Z,88.30
2018-10-11T07:14:06.333Z,88.20
2018-10-11T07:16:34.574Z,88.30
2018-10-11T07:19:02.959Z,88.80
2018-10-11T07:21:31.184Z,88.70
2018-10-11T07:23:59.503Z,88.70
2018-10-11T07:26:27.719Z,88.80
2018-10-11T07:28:56.243Z,88.70
2018-10-11T07:31:24.763Z,88.00
2018-10-11T07:33:53.111Z,87.50
2018-10-11T07:36:21.754Z,87.40
2018-10-11T07:38:50.259Z,87.40
2018-10-11T07:41:18.545Z,87.00
2018-10-11T07:43:46.875Z,86.60
2018-10-11T07:46:15.299Z,86.20
2018-10-11T07:48:43.725Z,85.80
2018-10-11T07:51:12.467Z,85.50
2018-10-11T07:53:40.891Z,85.50
2018-10-11T07:56:09.643Z,84.80
2018-10-11T07:58:38.245Z,83.40
2018-10-11T08:01:06.933Z,83.00
2018-10-11T08:03:35.486Z,82.40
2018-10-11T08:06:04.056Z,82.30
2018-10-11T08:08:32.641Z,82.50
2018-10-11T08:11:01.496Z,82.00
2018-10-11T08:13:30.411Z,81.50
2018-10-11T08:15:59.456Z,80.90
2018-10-11T08:18:30.060Z,80.50
2018-10-11T08:20:59.299Z,80.30
2018-10-11T08:23:28.674Z,79.40
2018-10-11T08:25:57.627Z,78.50
2018-10-11T08:28:26.268Z,78.20
2018-10-11T08:30:55.088Z,77.40
2018-10-11T08:33:24.602Z,77.50
2018-10-11T08:35:55.010Z,77.60
2018-10-11T08:38:23.828Z,76.30
2018-10-11T08:40:53.965Z,75.50
2018-10-11T08:43:22.784Z,74.90
2018-10-11T08:45:51.359Z,74.50
2018-10-11T08:48:19.866Z,73.00
2018-10-11T08:50:48.466Z,72.70
2018-10-11T08:53:16.930Z,72.50
2018-10-11T08:55:45.494Z,72.50
2018-10-11T08:58:14.032Z,71.60
2018-10-11T09:00:42.636Z,71.10
2018-10-11T09:03:11.311Z,70.30
2018-10-11T09:05:39.921Z,69.80
2018-10-11T09:08:09.200Z,69.90
2018-10-11T09:10:38.550Z,69.60
2018-10-11T09:13:06.838Z,69.30
2018-10-11T09:15:35.436Z,69.30
2018-10-11T09:18:04.425Z,69.00
2018-10-11T09:20:32.961Z,67.90
2018-10-11T09:23:01.764Z,67.90
2018-10-11T09:25:30.627Z,67.80
2018-10-11T09:27:59.106Z,67.70
2018-10-11T09:30:27.912Z,68.30
2018-10-11T09:32:56.365Z,68.00
2018-10-11T09:35:24.921Z,67.50
2018-10-11T09:37:54.958Z,67.40
2018-10-11T09:40:23.401Z,66.00
2018-10-11T09:42:52.010Z,65.60
2018-10-11T09:45:20.631Z,65.30
2018-10-11T09:47:49.151Z,64.80
2018-10-11T09:50:17.591Z,63.90
2018-10-11T09:52:46.112Z,64.00
2018-10-11T09:55:14.605Z,64.00
2018-10-11T09:57:43.306Z,64.30
2018-10-11T10:00:17.598Z,64.10
2018-10-11T10:02:47.419Z,64.30
2018-10-11T10:05:15.831Z,63.20
2018-10-11T10:07:44.285Z,62.90
2018-10-11T10:10:12.851Z,62.60
2018-10-11T10:12:41.468Z,62.90
2018-10-11T10:15:10.249Z,62.10
2018-10-11T10:17:38.665Z,61.80
2018-10-11T10:20:07.273Z,61.30
2018-10-11T10:22:36.818Z,61.30
2018-10-11T10:25:05.616Z,61.40
2018-10-11T10:27:34.692Z,61.00
2018-10-11T10:30:09.005Z,60.50
2018-10-11T10:32:37.602Z,60.10
2018-10-11T10:35:06.150Z,60.30
2018-10-11T10:37:35.373Z,59.40
2018-10-11T10:40:06.671Z,58.90
2018-10-11T10:42:36.285Z,58.40
2018-10-11T10:45:05.560Z,58.60
2018-10-11T10:47:34.569Z,56.80
2018-10-11T10:50:03.234Z,57.50
2018-10-11T10:52:32.138Z,57.60
2018-10-11T10:55:04.807Z,56.30
2018-10-11T10:57:36.471Z,56.20
2018-10-11T11:00:06.354Z,57.10
2018-10-11T11:02:35.783Z,56.10
2018-10-11T11:05:04.967Z,56.10
2018-10-11T11:07:34.564Z,56.00
2018-10-11T11:10:03.513Z,55.70
2018-10-11T11:12:32.279Z,55.90
2018-10-11T11:15:00.820Z,55.40
2018-10-11T11:17:29.216Z,54.80
2018-10-11T11:19:58.007Z,54.40
2018-10-11T11:22:26.690Z,53.80
2018-10-11T11:24:55.883Z,53.80
2018-10-11T11:27:26.533Z,53.80
2018-10-11T11:29:55.137Z,53.90
2018-10-11T11:32:24.273Z,52.90
2018-10-11T11:34:53.303Z,53.70
2018-10-11T11:37:22.526Z,53.20
2018-10-11T11:39:51.387Z,52.80
2018-10-11T11:42:20.158Z,52.60
2018-10-11T11:44:49.196Z,52.40
2018-10-11T11:47:18.335Z,51.50
2018-10-11T11:49:51.772Z,51.50
2018-10-11T11:52:20.853Z,50.70
2018-10-11T11:54:57.879Z,51.10
2018-10-11T11:57:26.754Z,50.80
2018-10-11T11:59:55.831Z,50.60
2018-10-11T12:02:26.095Z,49.10
2018-10-11T12:04:54.760Z,49.60
2018-10-11T12:07:25.859Z,50.30
2018-10-11T12:09:55.170Z,50.30
2018-10-11T12:13:08.833Z,50.50
2018-10-11T12:15:45.902Z,51.00
2018-10-11T12:18:15.065Z,50.90
2018-10-11T12:20:44.254Z,50.30
2018-10-11T12:23:17.541Z,50.00
2018-10-11T12:25:46.471Z,50.00
2018-10-11T12:28:15.076Z,49.80
2018-10-11T12:30:44.398Z,50.60
2018-10-11T12:33:13.045Z,50.60
2018-10-11T12:35:42.093Z,49.90
2018-10-11T12:38:10.810Z,49.60
2018-10-11T12:40:40.993Z,49.50
2018-10-11T12:43:13.415Z,49.30
2018-10-11T12:45:46.667Z,49.20
2018-10-11T12:51:22.795Z,48.90
2018-10-11T12:53:53.389Z,49.00
2018-10-11T12:56:24.098Z,49.30
2018-10-11T12:58:54.721Z,49.20
2018-10-11T13:01:26.317Z,48.80
2018-10-11T13:04:16.233Z,49.10
2018-10-11T13:06:52.775Z,49.10
2018-10-11T13:09:22.100Z,48.90
2018-10-11T13:11:51.804Z,48.80
2018-10-11T13:14:28.014Z,48.80
2018-10-11T13:16:58.660Z,48.80
2018-10-11T13:19:32.104Z,48.50
2018-10-11T13:22:08.507Z,47.90
2018-10-11T13:24:49.537Z,46.60
2018-10-11T13:27:24.242Z,46.70
2018-10-11T13:30:04.961Z,46.60
2018-10-11T13:32:35.093Z,46.30
2018-10-11T13:35:08.766Z,46.40
2018-10-11T13:37:49.958Z,46.40
2018-10-11T13:40:22.903Z,46.30
2018-10-11T13:43:01.116Z,46.40
2018-10-11T13:45:37.791Z,46.30
2018-10-11T13:48:11.817Z,46.30
2018-10-11T13:50:43.214Z,46.30
2018-10-11T13:53:17.017Z,46.20
2018-10-11T13:55:54.895Z,46.70
2018-10-11T13:58:22.384Z,46.60
2018-10-11T14:00:52.028Z,46.40
2018-10-11T14:03:23.810Z,47.00
2018-10-11T14:06:09.971Z,46.90
2018-10-11T14:11:29.666Z,46.20
2018-10-11T14:14:04.037Z,46.20
2018-10-11T14:16:43.029Z,46.10
2018-10-11T14:19:14.316Z,46.10
2018-10-11T14:21:48.580Z,46.10
2018-10-11T14:24:20.108Z,46.70
2018-10-11T14:26:50.237Z,47.10
2018-10-11T14:29:23.845Z,47.20
2018-10-11T14:32:09.941Z,47.30
2018-10-11T14:35:39.481Z,47.30
2018-10-11T14:38:21.245Z,47.20
2018-10-11T14:40:53.197Z,47.80
2018-10-11T14:43:31.141Z,47.30
2018-10-11T14:46:11.037Z,47.70
2018-10-11T14:48:49.571Z,47.60
2018-10-11T14:59:05.406Z,47.70
2018-10-11T15:01:46.692Z,48.00
2018-10-11T15:04:16.015Z,47.70
2018-10-11T15:09:44.433Z,47.90
2018-10-11T15:12:13.551Z,48.20
2018-10-11T15:14:53.358Z,48.40
2018-10-11T15:17:25.745Z,48.40
2018-10-11T15:20:23.926Z,48.50
2018-10-11T15:24:10.824Z,48.50
2018-10-11T15:26:41.460Z,48.60
2018-10-11T15:29:27.543Z,48.90
2018-10-11T15:32:01.335Z,49.30
2018-10-11T15:47:59.936Z,50.20
2018-10-11T15:50:28.419Z,53.60
2018-10-11T15:52:57.528Z,54.20
2018-10-11T15:55:27.227Z,54.40
2018-10-11T15:58:05.270Z,54.50
2018-10-11T16:00:37.121Z,54.40
2018-10-11T16:03:07.432Z,54.30
2018-10-11T16:05:35.888Z,54.90
2018-10-11T16:08:04.529Z,54.30
2018-10-11T16:10:33.010Z,55.00
2018-10-11T16:13:01.553Z,55.40
2018-10-11T16:18:17.969Z,56.30
2018-10-11T16:20:46.812Z,56.40
2018-10-11T16:23:15.379Z,56.60
2018-10-11T16:25:43.857Z,57.10
2018-10-11T16:28:12.514Z,57.40
2018-10-11T16:30:40.984Z,57.60
2018-10-11T16:33:09.837Z,57.90
2018-10-11T16:35:39.615Z,58.70
2018-10-11T16:38:09.113Z,58.10
2018-10-11T16:40:38.138Z,58.30
2018-10-11T16:43:08.233Z,58.40
2018-10-11T16:45:37.570Z,58.80
2018-10-11T16:48:09.103Z,59.20
2018-10-11T16:50:38.177Z,59.30
2018-10-11T16:53:07.056Z,59.20
2018-10-11T16:55:36.497Z,59.50
2018-10-11T16:58:07.238Z,59.70
2018-10-11T17:00:37.227Z,60.00
2018-10-11T17:03:08.779Z,59.90
2018-10-11T17:05:53.051Z,59.90
2018-10-11T17:08:30.540Z,60.10
2018-10-11T17:10:59.363Z,60.20
2018-10-11T17:13:27.698Z,60.50
2018-10-11T17:15:59.917Z,60.60
2018-10-11T17:18:28.553Z,60.90
2018-10-11T17:20:58.030Z,61.20
2018-10-11T17:23:35.640Z,61.40
2018-10-11T17:26:04.514Z,62.10
2018-10-11T17:28:33.222Z,62.40
2018-10-11T17:31:03.308Z,62.30
2018-10-11T17:33:31.788Z,62.60
2018-10-11T17:36:00.793Z,62.90
2018-10-11T17:38:29.922Z,63.30
2018-10-11T17:40:58.986Z,63.80
2018-10-11T17:43:28.128Z,64.00
2018-10-11T17:45:56.703Z,64.00
2018-10-11T17:48:25.225Z,64.50
2018-10-11T17:50:54.009Z,64.60
2018-10-11T17:53:24.274Z,65.20
2018-10-11T17:55:52.681Z,66.00
2018-10-11T17:58:21.353Z,66.20
2018-10-11T18:00:50.214Z,66.60
2018-10-11T18:03:19.441Z,67.00
2018-10-11T18:05:50.115Z,67.30
2018-10-11T18:08:18.904Z,67.40
2018-10-11T18:10:47.657Z,67.50
2018-10-11T18:13:16.176Z,69.00
2018-10-11T18:15:46.640Z,69.90
2018-10-11T18:18:17.196Z,71.20
2018-10-11T18:20:51.178Z,71.90
2018-10-11T18:23:19.857Z,72.70
2018-10-11T18:25:49.071Z,74.50
2018-10-11T18:28:17.933Z,75.40
2018-10-11T18:30:46.689Z,76.20
2018-10-11T18:33:15.742Z,77.00
2018-10-11T18:35:44.462Z,77.20
2018-10-11T18:38:13.489Z,77.20
2018-10-11T18:40:43.995Z,77.50
2018-10-11T18:43:12.479Z,79.60
2018-10-11T18:45:41.680Z,79.60
2018-10-11T18:48:10.016Z,80.50
2018-10-11T18:50:38.573Z,80.50
2018-10-11T18:53:06.959Z,80.50
2018-10-11T18:55:35.627Z,80.90
2018-10-11T18:58:04.391Z,81.60
2018-10-11T19:00:33.045Z,82.40
2018-10-11T19:03:01.524Z,82.80
2018-10-11T19:05:30.040Z,82.40
2018-10-11T19:07:58.791Z,82.80
2018-10-11T19:10:27.284Z,82.60
2018-10-11T19:12:55.686Z,82.80
2018-10-11T19:15:24.266Z,83.00
2018-10-11T19:17:52.784Z,83.30
2018-10-11T19:20:21.371Z,83.70
2018-10-11T19:22:49.854Z,84.10
2018-10-11T19:25:18.480Z,84.30
2018-10-11T19:27:48.238Z,84.20
2018-10-11T19:30:16.751Z,85.00
2018-10-11T19:32:45.360Z,84.70
2018-10-11T19:35:13.661Z,84.80
2018-10-11T19:37:42.030Z,85.30
2018-10-11T19:40:10.390Z,85.80
2018-10-11T19:42:38.944Z,85.90
2018-10-11T19:45:08.041Z,86.20
2018-10-11T19:47:36.599Z,86.10
2018-10-11T19:50:05.484Z,86.30
2018-10-11T19:52:34.133Z,86.20
2018-10-11T19:55:02.734Z,86.30
2018-10-11T19:57:31.233Z,86.30
2018-10-11T19:59:59.955Z,85.90
2018-10-11T20:02:28.469Z,86.10
2018-10-11T20:04:57.024Z,86.50
2018-10-11T20:07:25.472Z,86.50
2018-10-11T20:09:53.901Z,86.50
2018-10-11T20:12:22.365Z,86.40
2018-10-11T20:14:54.818Z,86.50
2018-10-11T20:17:23.169Z,86.60
2018-10-11T20:19:51.592Z,86.80
2018-10-11T20:22:19.955Z,87.10
2018-10-11T20:24:48.745Z,87.20
2018-10-11T20:27:17.119Z,87.40
2018-10-11T20:29:45.796Z,87.70
2018-10-11T20:32:14.273Z,87.80
2018-10-11T20:34:42.567Z,87.60
2018-10-11T20:37:11.369Z,88.40
2018-10-11T20:39:39.836Z,88.30
2018-10-11T20:42:08.417Z,88.30
2018-10-11T20:44:36.820Z,88.30
2018-10-11T20:47:05.485Z,88.40
2018-10-11T20:49:33.920Z,88.30
2018-10-11T20:52:02.265Z,88.30
2018-10-11T20:54:30.720Z,88.30
2018-10-11T20:56:59.263Z,88.30
2018-10-11T20:59:28.173Z,88.30
2018-10-11T21:01:56.652Z,88.40
2018-10-11T21:04:25.137Z,88.40
2018-10-11T21:06:53.721Z,88.00
2018-10-11T21:09:22.187Z,87.90
2018-10-11T21:11:50.734Z,88.30
2018-10-11T21:14:19.093Z,88.30
2018-10-11T21:16:47.752Z,88.30
2018-10-11T21:19:16.251Z,88.30
2018-10-11T21:21:44.609Z,88.30
2018-10-11T21:24:13.357Z,88.20
2018-10-11T21:26:41.800Z,88.30
2018-10-11T21:29:10.382Z,88.20
2018-10-11T21:31:38.889Z,88.30
2018-10-11T21:34:07.366Z,87.90
2018-10-11T21:36:35.803Z,87.10
2018-10-11T21:39:08.864Z,86.70
2018-10-11T21:41:37.663Z,86.20
2018-10-11T21:44:13.560Z,86.00
2018-10-11T21:46:49.195Z,85.90
2018-10-11T21:49:17.769Z,85.80
2018-10-11T21:51:46.116Z,85.90
2018-10-11T21:54:15.981Z,85.70
2018-10-11T21:56:44.301Z,85.60
2018-10-11T21:59:12.874Z,86.70
2018-10-11T22:01:41.365Z,85.90
2018-10-11T22:04:10.192Z,85.50
2018-10-11T22:09:42.740Z,84.50
2018-10-11T22:12:11.336Z,84.60
2018-10-11T22:14:39.862Z,84.80
2018-10-11T22:17:08.504Z,84.40
2018-10-11T22:19:37.278Z,84.50
2018-10-11T22:22:05.780Z,84.30
2018-10-11T22:24:35.008Z,84.00
2018-10-11T22:27:03.647Z,83.90
2018-10-11T22:29:32.180Z,83.90
2018-10-11T22:32:01.050Z,83.30
2018-10-11T22:34:29.625Z,83.30
2018-10-11T22:36:58.246Z,83.90
2018-10-11T22:39:26.582Z,84.00
2018-10-11T22:41:54.969Z,84.20
2018-10-11T22:44:23.317Z,84.20
2018-10-11T22:46:51.706Z,83.60
2018-10-11T22:49:20.111Z,83.10
2018-10-11T22:51:48.528Z,82.70
2018-10-11T22:54:17.105Z,82.50
2018-10-11T22:56:45.493Z,82.30
2018-10-11T22:59:13.892Z,81.90
2018-10-11T23:01:42.342Z,81.40
2018-10-11T23:04:10.679Z,81.00
2018-10-11T23:06:38.960Z,81.20
2018-10-11T23:09:07.957Z,80.80
2018-10-11T23:11:36.396Z,80.30
2018-10-11T23:14:04.897Z,79.80
2018-10-11T23:16:33.236Z,79.90
2018-10-11T23:19:01.620Z,80.30
2018-10-11T23:21:29.899Z,80.80
2018-10-11T23:23:58.227Z,81.30
2018-10-11T23:26:26.512Z,81.90
2018-10-11T23:28:54.890Z,82.10
2018-10-11T23:31:23.205Z,82.40
2018-10-11T23:33:51.644Z,82.60
2018-10-11T23:36:20.740Z,83.40
2018-10-11T23:38:49.279Z,83.60
2018-10-11T23:41:17.657Z,83.80
2018-10-11T23:43:46.193Z,83.80
2018-10-11T23:46:14.612Z,84.00
2018-10-11T23:48:43.028Z,83.60
2018-10-11T23:51:11.412Z,84.00
2018-10-11T23:53:39.754Z,84.00
2018-10-11T23:56:08.166Z,83.80
2018-10-11T23:58:36.604Z,83.70
